Accueil
METAR-TAF:

METAR-TAF

Aéroports :

Aéroport d'Abou Simbel

Abou Simbel, Égypte

latitude: 22-22-33N, longitude: 31-36-42E, altitude: 188 m

Observation

Le bulletin a été fait il y a 36 minutes, à 11:00 UTC
Vent 8 kt de est/nord-est
Température 32°C
Humidité 28%
Pression 1014 hPa
Visibilité 10 km ou plus
pas de nuages en-dessous de 1500 mètres et pas de cumulonimbus.

METAR: HEBL 191100Z 06008KT CAVOK 32/11 Q1014 NOSIG

Heure: 13:36 (11:36 UTC)

Prévision

Le bulletin a été fait il y a 6 heures et 36 minutes, à 05:00 UTC
Prévision valable du 19 à 06 UTC au 20 à 12 UTC
Vent 12 kt de nord/nord-est
Visibilité 10 km ou plus
pas de nuages en-dessous de 1500 mètres et pas de cumulonimbus.

TAF: HEBL 190500Z 1906/2012 03012KT CAVOK

Observations et prévisions météorologiques de plus de 4000 aéroports (messages METAR et TAF).

Les stations disponibles sont représentées par des disques jaunes et rouges sur la carte.

Passer la souris dessus pour voir le nom de la station.

Cliquer dessus pour voir les observations et prévisions météorologiques.

Pour changer de carte: cliquez sur les boutons verts avec une croix noire pour zoomer, sur le bouton vert avec un tiret pour effectuer un zoom arrière, ou sur les flèches vertes pour les cartes adjacentes.


METAR-TAF: